IE-0034 weather

Ballyvaloo Airstrip
County Wexford, Ireland

Public forecast

Using degrees Celsius for public forecast. Weather courtesy of forecast.io.

METAR (pilot weather report)

Closest report is Waterford Airport, 29.9 nm (55.3 km) WSW. Retrieved 2019/06/25 08:30 UTC (23 minutes ago):

EIWF 250830Z 05006KT 9999 FEW012 SCT034 ///// Q1020

TAF (pilot weather forecast)

Closest forecast is Dublin Airport, 60.5 nm (112.1 km) N. Retrieved 2019/06/25 06:09 UTC (3 hours ago):

TAF EIDW 250500Z 2506/2606 VRB03KT 9999 FEW010 BKN030 BECMG 2506/2509 02007KT BECMG 2511/2514 05010KT BECMG 2521/2524 02005KT PROB30 TEMPO 2600/2605 4000 BR